Hattiesburg Laurel Regional Airport Hattiesburg,Laurel US
ICAO: KPIB
IATA: PIB
Category: Medium
Scheduled Services: Yes

Elevation: 298 ft
TransAlt. 18000 ft.

Airport Communications:
AWOS 3:128.325
HOUSTON CNTR:126.8
CTAF/UNICOM:123

KPIB Zoom In..

If you have problems with the map follow the link
https://www.worldairports.se/pages/airport.php?
ICAO=KPIB

Runways:

(A) RW 18 length 6502 ft width 150 ft
ILS 109.50 / hdg 181

(B) RW 36 length 6502 ft width 150 ft
---- / hdg 1

Location; KPIB
Day. 18 / Time. 07.56 Zulu
* Altimeter: 30.28
* Temperature: 16° c. 60.8°f.
* Wind from: 020° Speed 08 kn.
Dewpoint: 11° c.
Visibility: 10 Statute Miles.
Clouds: Overcast 3100 ft.

KPIB 180756Z AUTO 02008KT 10SM OVC031 16/11 A3028 RMK AO2 SLP253 T01560111


Wind From 020°
Speed 08 kn.

 
 
jpsmedia.com for Web Design worldairports.se 2018   terms of use